Time;durP1;ratioP1;P1;durP2;ratioP2;P2;SDS_P1;SDS_P2;PMS_P1;PMS_P2;Temp;Humidity;BMP_temperature;BMP_pressure;BME280_temperature;BME280_humidity;BME280_pressure;Samples;Min_cycle;Max_cycle;Signal;HPM_P1;HPM_P2
2022/07/10 00:01:05;;;;;;;18.02;12.88;;;16.80;99.90;;;;;;5048827;28;20048;-75
2022/07/10 00:03:33;;;;;;;16.35;14.73;;;16.80;99.90;;;;;;5049307;28;20059;-75
2022/07/10 00:06:01;;;;;;;18.23;15.95;;;16.80;99.90;;;;;;5048969;28;20045;-75
2022/07/10 00:08:29;;;;;;;16.88;13.93;;;16.70;99.90;;;;;;5031144;28;20044;-75
2022/07/10 00:10:57;;;;;;;17.10;14.95;;;16.70;99.90;;;;;;5049265;28;20080;-75
2022/07/10 00:13:24;;;;;;;17.75;15.65;;;16.70;99.90;;;;;;5014590;28;20094;-76
2022/07/10 00:15:51;;;;;;;20.83;17.08;;;16.70;99.90;;;;;;5048729;28;20140;-75
2022/07/10 00:18:19;;;;;;;20.70;18.60;;;16.80;99.90;;;;;;5029052;28;20102;-75
2022/07/10 00:20:48;;;;;;;27.50;20.30;;;16.70;99.90;;;;;;5049133;28;20049;-76
2022/07/10 00:23:15;;;;;;;19.45;17.40;;;16.80;99.90;;;;;;5031338;28;20044;-75
2022/07/10 00:25:43;;;;;;;18.83;16.65;;;16.80;99.90;;;;;;5031627;28;20501;-75
2022/07/10 00:28:11;;;;;;;18.48;15.43;;;16.80;99.90;;;;;;5048984;28;20508;-75
2022/07/10 00:30:38;;;;;;;16.77;15.07;;;16.80;99.90;;;;;;5046885;28;20045;-75
2022/07/10 00:33:06;;;;;;;17.35;13.63;;;16.80;99.90;;;;;;5030477;28;20076;-75
2022/07/10 00:35:33;;;;;;;14.90;13.55;;;16.80;99.90;;;;;;5048921;28;20037;-75
2022/07/10 00:38:02;;;;;;;16.67;13.63;;;16.70;99.90;;;;;;5048820;28;20144;-75
2022/07/10 00:40:30;;;;;;;15.48;13.20;;;16.80;99.90;;;;;;5014749;28;20494;-74
2022/07/10 00:42:57;;;;;;;14.35;12.05;;;16.70;99.90;;;;;;5046821;28;20565;-75
2022/07/10 00:45:25;;;;;;;14.35;11.60;;;16.70;99.90;;;;;;5049029;28;20574;-74
2022/07/10 00:47:52;;;;;;;12.27;10.98;;;16.70;99.90;;;;;;5049087;28;20136;-75
2022/07/10 00:50:20;;;;;;;12.75;11.32;;;16.70;99.90;;;;;;5046645;28;20059;-75
2022/07/10 00:52:47;;;;;;;12.73;11.20;;;16.70;99.90;;;;;;5013889;28;20045;-75
2022/07/10 00:55:16;;;;;;;16.58;10.38;;;16.70;99.90;;;;;;5030335;28;20037;-75
2022/07/10 00:57:44;;;;;;;11.80;10.57;;;16.70;99.90;;;;;;5030327;28;20053;-74
2022/07/10 01:00:12;;;;;;;15.40;10.23;;;16.70;99.90;;;;;;5031152;28;20083;-74
2022/07/10 01:02:44;;;;;;;12.70;9.43;;;16.70;99.90;;;;;;5031561;28;20056;-74
2022/07/10 01:05:12;;;;;;;12.73;10.63;;;16.70;99.90;;;;;;5050277;28;20494;-74
2022/07/10 01:07:39;;;;;;;11.73;9.75;;;16.80;99.90;;;;;;5032178;28;20045;-75
2022/07/10 01:10:07;;;;;;;11.80;10.50;;;16.80;99.90;;;;;;5032295;28;20140;-74
2022/07/10 01:12:37;;;;;;;13.60;8.93;;;16.80;99.90;;;;;;5032017;28;20048;-74
2022/07/10 01:15:05;;;;;;;12.80;9.60;;;16.80;99.90;;;;;;5049947;28;20527;-74
2022/07/10 01:17:33;;;;;;;11.48;10.32;;;16.80;99.90;;;;;;5015639;28;20487;-74
2022/07/10 01:20:06;;;;;;;12.85;10.13;;;16.80;99.90;;;;;;5031930;28;20056;-74
2022/07/10 01:22:36;;;;;;;10.73;9.63;;;16.80;99.90;;;;;;5032045;28;20055;-73
2022/07/10 01:25:05;;;;;;;11.82;9.45;;;16.80;99.90;;;;;;5049887;28;20056;-74
2022/07/10 01:27:33;;;;;;;10.05;8.95;;;16.80;99.90;;;;;;5049815;28;20398;-74
2022/07/10 01:30:00;;;;;;;12.05;10.27;;;16.80;99.90;;;;;;5032093;28;20073;-74
2022/07/10 01:32:28;;;;;;;11.02;9.73;;;16.90;99.90;;;;;;5031812;28;20078;-73
2022/07/10 01:34:55;;;;;;;11.60;10.32;;;16.90;99.90;;;;;;5036087;28;20080;-74
2022/07/10 01:37:23;;;;;;;12.30;9.50;;;16.90;99.90;;;;;;5018461;28;20041;-75
2022/07/10 01:39:51;;;;;;;11.23;9.88;;;16.90;99.90;;;;;;5036040;28;20057;-74
2022/07/10 01:42:19;;;;;;;10.77;9.77;;;16.90;99.90;;;;;;5031910;28;20045;-74
2022/07/10 01:44:46;;;;;;;15.18;10.30;;;16.90;99.90;;;;;;4999607;28;20055;-74
2022/07/10 01:47:14;;;;;;;10.25;9.27;;;16.90;99.90;;;;;;5022700;28;20402;-74
2022/07/10 01:49:41;;;;;;;12.43;9.13;;;16.90;99.90;;;;;;5035596;28;20049;-74
2022/07/10 01:52:10;;;;;;;9.43;8.02;;;16.90;99.90;;;;;;5053666;28;20045;-74
2022/07/10 01:54:37;;;;;;;9.52;8.70;;;16.90;99.90;;;;;;5017467;28;20049;-73
2022/07/10 01:57:07;;;;;;;10.40;9.40;;;16.90;99.90;;;;;;5015880;28;20053;-74
2022/07/10 01:59:34;;;;;;;10.68;8.57;;;17.00;99.90;;;;;;5019989;28;20059;-74
2022/07/10 02:02:02;;;;;;;10.05;9.15;;;17.00;99.90;;;;;;5015191;28;20152;-74
2022/07/10 02:04:41;;;;;;;11.18;9.98;;;17.00;99.90;;;;;;5017039;28;20474;-73
2022/07/10 02:07:08;;;;;;;14.35;11.52;;;17.00;99.90;;;;;;4999375;28;20050;-73
2022/07/10 02:09:36;;;;;;;11.98;10.65;;;17.00;99.90;;;;;;5046209;28;20076;-73
2022/07/10 02:12:04;;;;;;;11.40;10.25;;;17.00;99.90;;;;;;5052924;28;20037;-73
2022/07/10 02:14:33;;;;;;;11.70;10.70;;;17.00;99.90;;;;;;5052961;28;20480;-73
2022/07/10 02:17:01;;;;;;;13.10;11.70;;;16.90;99.90;;;;;;5052534;28;20047;-73
2022/07/10 02:19:28;;;;;;;13.63;11.20;;;16.90;99.90;;;;;;5022733;28;20050;-74
2022/07/10 02:21:56;;;;;;;13.93;11.27;;;16.90;99.90;;;;;;5014887;28;20406;-74
2022/07/10 02:24:23;;;;;;;13.02;11.82;;;16.90;99.90;;;;;;5014983;28;20092;-74
2022/07/10 02:26:51;;;;;;;13.65;12.27;;;16.90;99.90;;;;;;4998800;28;20425;-74
2022/07/10 02:29:19;;;;;;;14.73;12.02;;;16.90;99.90;;;;;;5014472;28;20046;-74
2022/07/10 02:31:48;;;;;;;13.43;12.02;;;17.00;99.90;;;;;;5032873;28;20053;-74
2022/07/10 02:34:15;;;;;;;13.57;12.18;;;17.00;99.90;;;;;;5014745;28;20111;-74
2022/07/10 02:36:43;;;;;;;12.02;10.82;;;17.00;99.90;;;;;;5018986;28;20128;-74
2022/07/10 02:39:10;;;;;;;13.35;12.00;;;17.00;99.90;;;;;;5032738;28;20498;-74
2022/07/10 02:41:38;;;;;;;13.05;11.85;;;17.10;99.90;;;;;;5044629;28;20044;-74
2022/07/10 02:44:06;;;;;;;13.27;11.88;;;17.10;99.90;;;;;;5033633;28;20606;-74
2022/07/10 02:46:33;;;;;;;13.73;12.35;;;17.10;99.90;;;;;;5052193;28;20053;-74
2022/07/10 02:49:04;;;;;;;12.43;11.15;;;17.10;99.90;;;;;;5052278;28;20065;-74
2022/07/10 02:51:31;;;;;;;12.85;11.65;;;17.20;99.90;;;;;;5052877;28;20098;-74
2022/07/10 02:53:58;;;;;;;15.48;12.93;;;17.20;99.90;;;;;;5034809;28;20139;-75
2022/07/10 02:56:26;;;;;;;13.68;12.27;;;17.20;99.90;;;;;;5052267;28;20057;-74
2022/07/10 02:58:53;;;;;;;15.02;12.15;;;17.20;99.90;;;;;;5051572;28;20466;-75
2022/07/10 03:01:21;;;;;;;14.07;11.73;;;17.20;99.90;;;;;;5033886;28;20499;-74
2022/07/10 03:03:48;;;;;;;15.25;12.32;;;17.30;99.90;;;;;;5034430;28;20052;-75
2022/07/10 03:06:17;;;;;;;12.95;11.57;;;17.30;99.90;;;;;;5052062;28;20053;-74
2022/07/10 03:08:45;;;;;;;12.82;11.45;;;17.30;99.90;;;;;;5052359;28;20049;-74
2022/07/10 03:11:12;;;;;;;12.60;11.45;;;17.30;99.90;;;;;;5051774;28;20052;-73
2022/07/10 03:13:40;;;;;;;12.88;11.10;;;17.30;99.90;;;;;;5033240;28;20535;-74
2022/07/10 03:16:07;;;;;;;12.18;10.98;;;17.30;99.90;;;;;;5017265;28;20060;-74
2022/07/10 03:18:35;;;;;;;11.57;10.38;;;17.30;99.90;;;;;;5033469;28;20048;-74
2022/07/10 03:21:02;;;;;;;11.20;10.27;;;17.40;99.90;;;;;;5051724;28;20049;-74
2022/07/10 03:23:31;;;;;;;11.90;10.90;;;17.40;99.90;;;;;;5033532;28;20055;-74
2022/07/10 03:25:59;;;;;;;12.05;10.98;;;17.40;99.90;;;;;;5033672;28;20217;-74
2022/07/10 03:28:26;;;;;;;10.90;10.00;;;17.50;99.90;;;;;;5033940;28;20428;-73
2022/07/10 03:30:53;;;;;;;13.15;11.80;;;17.50;99.90;;;;;;5033624;28;20143;-73
2022/07/10 03:33:21;;;;;;;13.25;12.05;;;17.50;99.90;;;;;;5017059;28;20061;-74
2022/07/10 03:35:48;;;;;;;12.98;11.85;;;17.50;99.90;;;;;;5033617;28;20045;-74
2022/07/10 03:38:16;;;;;;;16.65;13.77;;;17.60;99.90;;;;;;5016826;28;20540;-73
2022/07/10 03:40:47;;;;;;;16.02;12.80;;;17.60;99.90;;;;;;5051349;28;20061;-73
2022/07/10 03:43:15;;;;;;;14.65;13.18;;;17.70;99.90;;;;;;5051689;28;20048;-73
2022/07/10 03:45:43;;;;;;;16.77;14.93;;;17.80;99.90;;;;;;5051271;28;20052;-74
2022/07/10 03:48:10;;;;;;;16.58;14.23;;;17.80;99.90;;;;;;5051281;28;20060;-74
2022/07/10 03:50:38;;;;;;;16.23;14.60;;;17.70;99.90;;;;;;5051327;28;20398;-74
2022/07/10 03:53:05;;;;;;;18.15;16.15;;;17.70;99.90;;;;;;5033170;28;20051;-74
2022/07/10 03:55:33;;;;;;;17.50;15.65;;;17.70;99.90;;;;;;5050649;28;20091;-74
2022/07/10 03:58:02;;;;;;;17.77;15.80;;;17.70;99.90;;;;;;5033321;28;20053;-74
2022/07/10 04:00:32;;;;;;;17.48;15.77;;;17.60;99.90;;;;;;5033152;28;20080;-74
2022/07/10 04:03:00;;;;;;;17.23;15.43;;;17.50;99.90;;;;;;5033114;28;20053;-74
2022/07/10 04:05:29;;;;;;;17.60;15.35;;;17.50;99.90;;;;;;5033148;28;20509;-74
2022/07/10 04:07:57;;;;;;;15.40;14.00;;;17.50;99.90;;;;;;5032957;28;20048;-74
2022/07/10 04:10:25;;;;;;;19.60;14.98;;;17.40;99.90;;;;;;5050583;28;20059;-75
2022/07/10 04:12:53;;;;;;;17.67;15.25;;;17.40;99.90;;;;;;5016592;28;20073;-74
2022/07/10 04:15:22;;;;;;;16.23;14.50;;;17.40;99.90;;;;;;5050591;28;20061;-74
2022/07/10 04:17:50;;;;;;;16.75;14.65;;;17.40;99.90;;;;;;5030942;28;20056;-74
2022/07/10 04:20:18;;;;;;;16.58;14.95;;;17.50;99.90;;;;;;5013016;28;20045;-74
2022/07/10 04:22:46;;;;;;;16.20;14.23;;;17.60;99.90;;;;;;5029612;28;20128;-74
2022/07/10 04:25:14;;;;;;;17.10;15.23;;;17.60;99.90;;;;;;5030525;28;20050;-74
2022/07/10 04:27:41;;;;;;;16.27;13.38;;;17.70;99.90;;;;;;5030326;28;20139;-73
2022/07/10 04:30:09;;;;;;;16.38;14.68;;;17.80;99.90;;;;;;5030157;28;20517;-73
2022/07/10 04:32:38;;;;;;;15.15;13.65;;;17.90;99.90;;;;;;5013219;28;20077;-74
2022/07/10 04:35:07;;;;;;;13.23;12.02;;;18.10;99.90;;;;;;5012936;28;20143;-74
2022/07/10 04:37:35;;;;;;;14.55;13.05;;;18.30;99.90;;;;;;5030535;28;20072;-73
2022/07/10 04:40:03;;;;;;;29.20;13.45;;;18.40;99.90;;;;;;5029427;28;20100;-73
2022/07/10 04:42:31;;;;;;;17.35;14.48;;;18.50;99.90;;;;;;5029562;28;20072;-73
2022/07/10 04:44:58;;;;;;;12.73;11.52;;;18.50;99.90;;;;;;5012960;28;20045;-73
2022/07/10 04:47:25;;;;;;;12.05;10.82;;;18.60;99.90;;;;;;5013075;28;20052;-73
2022/07/10 04:49:54;;;;;;;15.68;11.88;;;18.70;99.90;;;;;;5029760;28;20045;-74
2022/07/10 04:52:22;;;;;;;12.85;11.45;;;18.80;99.90;;;;;;5029164;28;20136;-74
2022/07/10 04:54:49;;;;;;;11.45;10.32;;;18.90;99.90;;;;;;5030571;28;20096;-74
2022/07/10 04:57:17;;;;;;;11.05;10.15;;;19.10;99.90;;;;;;5012658;28;20422;-74
2022/07/10 04:59:44;;;;;;;13.95;9.85;;;19.30;99.90;;;;;;5012559;28;20046;-74
2022/07/10 05:02:14;;;;;;;10.48;9.45;;;19.40;99.90;;;;;;5029394;28;20058;-74
2022/07/10 05:04:42;;;;;;;9.52;8.63;;;19.50;99.90;;;;;;5011863;28;20513;-73
2022/07/10 05:07:10;;;;;;;9.27;8.38;;;19.60;99.90;;;;;;5029802;28;20064;-74
2022/07/10 05:09:38;;;;;;;12.68;8.32;;;19.60;99.90;;;;;;5034646;28;20459;-74
2022/07/10 05:12:06;;;;;;;8.05;7.45;;;19.60;99.90;;;;;;5033796;28;20130;-75
2022/07/10 05:14:34;;;;;;;9.55;8.60;;;19.80;99.90;;;;;;5016892;28;20100;-73
2022/07/10 05:17:02;;;;;;;9.50;8.60;;;19.80;99.90;;;;;;5034421;28;20046;-74
2022/07/10 05:19:30;;;;;;;14.32;10.20;;;19.90;99.90;;;;;;5016547;28;20144;-75
2022/07/10 05:21:57;;;;;;;12.93;9.30;;;20.00;99.90;;;;;;5032369;28;20416;-74
2022/07/10 05:24:26;;;;;;;10.80;8.50;;;20.30;99.90;;;;;;5016017;28;20049;-74
2022/07/10 05:26:54;;;;;;;8.50;7.80;;;20.50;99.90;;;;;;5034127;28;20073;-74
2022/07/10 05:29:21;;;;;;;13.05;7.63;;;20.70;99.90;;;;;;5016190;28;20053;-74
2022/07/10 05:31:49;;;;;;;6.75;5.78;;;21.00;99.90;;;;;;5033942;28;20119;-74
2022/07/10 05:34:16;;;;;;;8.38;7.43;;;21.20;99.90;;;;;;5016066;28;20049;-74
2022/07/10 05:36:44;;;;;;;7.55;6.70;;;21.30;99.90;;;;;;5033760;28;20050;-74
2022/07/10 05:39:11;;;;;;;6.65;5.65;;;21.40;99.90;;;;;;5016340;28;20104;-78
2022/07/10 05:41:40;;;;;;;5.30;4.88;;;21.30;99.90;;;;;;5032618;28;20049;-75
2022/07/10 05:44:07;;;;;;;5.47;5.07;;;21.40;99.90;;;;;;5051080;28;20051;-74
2022/07/10 05:46:35;;;;;;;5.75;5.22;;;21.50;99.90;;;;;;5033785;28;20040;-74
2022/07/10 05:49:03;;;;;;;5.80;5.00;;;21.50;99.90;;;;;;5031376;28;20073;-73
2022/07/10 05:51:30;;;;;;;5.70;5.13;;;21.50;99.90;;;;;;5052039;28;20041;-75
2022/07/10 05:53:59;;;;;;;6.75;5.13;;;21.50;99.90;;;;;;5051532;28;20091;-74
2022/07/10 05:56:26;;;;;;;7.07;4.57;;;21.50;99.90;;;;;;5052190;28;20064;-75
2022/07/10 05:58:56;;;;;;;5.45;4.88;;;21.50;99.90;;;;;;5052142;28;20043;-74
2022/07/10 06:01:23;;;;;;;5.82;5.30;;;21.50;99.90;;;;;;5049560;28;20041;-76
2022/07/10 06:03:51;;;;;;;5.05;4.75;;;21.60;99.90;;;;;;5034142;28;20118;-75
2022/07/10 06:06:18;;;;;;;6.00;4.70;;;21.60;99.90;;;;;;5051684;28;20059;-75
2022/07/10 06:08:46;;;;;;;5.50;5.00;;;21.60;99.90;;;;;;5051518;28;20053;-78
2022/07/10 06:11:15;;;;;;;5.93;5.45;;;21.60;99.90;;;;;;5051634;28;20052;-74
2022/07/10 06:13:43;;;;;;;5.18;4.68;;;21.70;99.90;;;;;;5031665;28;20052;-76
2022/07/10 06:16:13;;;;;;;5.10;4.70;;;21.90;99.90;;;;;;5051407;28;20144;-75
2022/07/10 06:18:40;;;;;;;6.38;4.72;;;21.90;99.90;;;;;;5051555;28;20037;-75
2022/07/10 06:21:07;;;;;;;6.78;5.60;;;21.90;99.90;;;;;;5051360;28;20059;-76
2022/07/10 06:23:35;;;;;;;5.50;5.05;;;22.00;99.90;;;;;;5033516;28;20526;-80
2022/07/10 06:26:03;;;;;;;5.40;4.88;;;22.10;99.90;;;;;;5032090;28;20111;-74
2022/07/10 06:28:30;;;;;;;5.00;4.60;;;22.20;99.90;;;;;;5016674;28;20049;-76
2022/07/10 06:30:58;;;;;;;5.90;4.50;;;22.30;99.90;;;;;;5051130;28;20045;-74
2022/07/10 06:33:27;;;;;;;4.15;3.90;;;22.40;99.90;;;;;;5033159;28;20049;-75
2022/07/10 06:35:54;;;;;;;5.10;4.00;;;22.50;99.90;;;;;;5051102;28;20394;-74
2022/07/10 06:38:22;;;;;;;5.28;3.63;;;22.50;99.90;;;;;;5051324;28;20453;-75
2022/07/10 06:40:50;;;;;;;3.88;3.45;;;22.60;99.90;;;;;;5033245;28;20060;-74
2022/07/10 06:43:17;;;;;;;3.58;2.92;;;22.80;99.90;;;;;;5048524;28;20037;-74
2022/07/10 06:45:45;;;;;;;4.13;3.70;;;22.90;99.90;;;;;;5051142;28;20151;-79
2022/07/10 06:48:13;;;;;;;5.05;3.70;;;22.80;99.90;;;;;;5033448;28;20398;-80
2022/07/10 06:50:42;;;;;;;4.65;4.25;;;22.70;99.90;;;;;;5033960;28;20139;-78
2022/07/10 06:53:10;;;;;;;4.43;3.83;;;22.70;99.90;;;;;;5033226;28;20052;-77
2022/07/10 06:55:38;;;;;;;3.90;3.60;;;22.60;99.90;;;;;;5050876;28;20509;-79
2022/07/10 06:58:06;;;;;;;4.10;3.80;;;22.70;99.90;;;;;;5051067;28;20045;-79
2022/07/10 07:00:33;;;;;;;4.53;4.05;;;22.70;99.90;;;;;;5050587;28;20151;-75
2022/07/10 07:03:01;;;;;;;4.80;3.95;;;22.80;99.90;;;;;;5026480;28;20052;-74
2022/07/10 07:05:28;;;;;;;4.35;3.95;;;22.90;99.90;;;;;;5040707;28;20093;-74
2022/07/10 07:07:57;;;;;;;4.32;4.03;;;23.00;99.90;;;;;;5060532;28;20090;-74
2022/07/10 07:10:25;;;;;;;6.93;4.97;;;22.90;99.90;;;;;;5048927;28;20543;-79
2022/07/10 07:12:53;;;;;;;5.95;4.72;;;22.90;99.90;;;;;;5046280;28;20103;-79
2022/07/10 07:15:23;;;;;;;5.47;4.97;;;22.90;99.90;;;;;;5052195;28;20428;-80
2022/07/10 07:18:07;;;;;;;5.55;5.03;;;22.80;99.90;;;;;;5050809;28;20429;-80
2022/07/10 07:23:22;;;;;;;8.45;6.85;;;22.80;99.90;;;;;;5034333;28;20048;-78
2022/07/10 07:25:51;;;;;;;5.65;5.20;;;22.80;99.90;;;;;;5017070;28;20116;-79
2022/07/10 07:28:19;;;;;;;10.57;6.30;;;22.90;99.90;;;;;;5032040;28;20048;-79
2022/07/10 07:30:47;;;;;;;7.10;6.07;;;23.00;99.90;;;;;;5033565;28;20095;-79
2022/07/10 07:33:15;;;;;;;6.53;6.00;;;23.20;99.90;;;;;;5052624;28;20048;-82
2022/07/10 07:35:44;;;;;;;8.15;5.97;;;23.50;99.90;;;;;;5052086;28;20059;-80
2022/07/10 07:38:11;;;;;;;6.88;5.88;;;23.90;99.90;;;;;;5033413;28;20537;-80
2022/07/10 07:40:40;;;;;;;8.32;6.53;;;24.70;99.90;;;;;;5033928;28;20044;-83
2022/07/10 07:43:09;;;;;;;6.47;5.75;;;25.50;99.90;;;;;;5048504;28;20125;-83
2022/07/10 07:45:36;;;;;;;6.07;5.57;;;26.30;99.90;;;;;;5050496;28;20084;-85
2022/07/10 07:48:04;;;;;;;6.57;6.03;;;26.60;99.90;;;;;;5055045;28;20122;-83
2022/07/10 07:50:34;;;;;;;5.93;5.43;;;26.70;99.90;;;;;;5054484;28;20519;-82
2022/07/10 07:53:03;;;;;;;8.75;5.25;;;26.70;99.90;;;;;;5051714;28;20056;-81
2022/07/10 07:55:34;;;;;;;5.43;5.03;;;26.90;99.90;;;;;;5043033;28;20072;-79
2022/07/10 07:58:04;;;;;;;5.38;4.60;;;27.00;99.90;;;;;;5046337;28;20435;-82
2022/07/10 08:00:32;;;;;;;4.35;3.95;;;26.70;99.90;;;;;;5048375;28;20037;-80
2022/07/10 08:03:00;;;;;;;4.32;3.92;;;26.60;99.90;;;;;;5041452;28;20049;-79
2022/07/10 08:05:28;;;;;;;6.43;4.30;;;26.40;99.90;;;;;;5042224;28;20494;-78
2022/07/10 08:07:57;;;;;;;5.43;3.83;;;26.20;99.90;;;;;;5045015;28;20055;-78
2022/07/10 08:10:27;;;;;;;4.80;4.22;;;26.10;99.90;;;;;;5036155;28;20451;-88
2022/07/10 08:12:54;;;;;;;4.35;3.97;;;26.20;99.90;;;;;;5049471;28;20068;-87
2022/07/10 08:15:24;;;;;;;3.55;2.88;;;26.60;99.90;;;;;;5030477;28;20106;-80
2022/07/10 08:17:53;;;;;;;4.05;3.72;;;27.20;99.90;;;;;;5047320;28;20052;-85
2022/07/10 08:20:21;;;;;;;5.30;3.40;;;27.30;99.90;;;;;;5051118;28;20503;-80
2022/07/10 08:22:49;;;;;;;4.10;3.80;;;27.10;99.90;;;;;;5025603;28;20067;-81
2022/07/10 08:25:16;;;;;;;3.78;3.40;;;27.10;99.90;;;;;;5027219;28;20402;-78
2022/07/10 08:27:44;;;;;;;4.35;3.95;;;27.40;99.90;;;;;;5042836;28;20090;-79
2022/07/10 08:30:12;;;;;;;15.95;14.55;;;27.70;99.90;;;;;;5043736;28;20040;-81
2022/07/10 08:32:42;;;;;;;4.85;4.57;;;27.90;99.90;;;;;;5046997;28;20084;-82
2022/07/10 08:35:14;;;;;;;4.22;3.53;;;28.20;99.90;;;;;;5022503;28;20055;-87
2022/07/10 08:37:43;;;;;;;6.45;3.42;;;28.40;99.50;;;;;;5051659;28;20053;-86
2022/07/10 08:40:12;;;;;;;6.60;4.00;;;28.80;99.10;;;;;;5055717;28;20045;-85
2022/07/10 08:42:41;;;;;;;3.67;3.38;;;29.40;97.10;;;;;;5045726;28;20051;-84
2022/07/10 08:45:09;;;;;;;6.38;3.30;;;29.80;95.80;;;;;;5051591;28;20045;-87
2022/07/10 08:47:38;;;;;;;5.53;3.70;;;30.30;94.30;;;;;;5059724;28;20049;-86
2022/07/10 08:50:16;;;;;;;4.95;3.80;;;30.70;91.90;;;;;;5064204;28;20045;-85
2022/07/10 08:52:54;;;;;;;4.47;4.07;;;30.70;92.00;;;;;;5065454;28;20037;-85
2022/07/10 08:55:22;;;;;;;8.73;4.85;;;30.10;92.10;;;;;;5064514;28;20132;-91
2022/07/10 08:57:56;;;;;;;4.32;3.92;;;29.20;91.10;;;;;;5043842;28;20048;-85
2022/07/10 09:00:24;;;;;;;3.90;3.70;;;28.40;93.40;;;;;;5055623;28;20040;-84
2022/07/10 09:02:53;;;;;;;3.50;3.20;;;28.30;96.20;;;;;;5050774;28;20131;-84
2022/07/10 09:05:23;;;;;;;3.33;2.97;;;28.80;98.10;;;;;;5050707;28;20627;-81
2022/07/10 09:07:51;;;;;;;3.70;3.30;;;29.50;94.00;;;;;;5052999;28;20069;-88
2022/07/10 09:10:22;;;;;;;3.10;2.90;;;29.70;90.80;;;;;;5053002;28;20049;-82
2022/07/10 09:12:56;;;;;;;3.60;2.75;;;29.60;90.80;;;;;;5049934;28;20057;-85
2022/07/10 09:15:25;;;;;;;4.07;3.15;;;29.90;87.60;;;;;;5050209;28;20052;-81
2022/07/10 09:17:54;;;;;;;2.38;2.20;;;30.00;88.20;;;;;;5030366;28;20040;-84
2022/07/10 09:20:32;;;;;;;2.65;2.45;;;30.00;84.10;;;;;;5049514;28;20334;-87
2022/07/10 09:23:09;;;;;;;3.15;2.80;;;29.80;84.70;;;;;;5055517;28;21299;-86
2022/07/10 09:25:37;;;;;;;3.38;2.60;;;29.30;88.20;;;;;;5046492;28;20468;-79
2022/07/10 09:28:07;;;;;;;4.53;3.42;;;28.80;88.50;;;;;;5024259;28;20044;-79
2022/07/10 09:30:37;;;;;;;3.40;3.10;;;28.20;90.50;;;;;;5026101;28;20048;-81
2022/07/10 09:33:25;;;;;;;3.78;3.47;;;27.80;92.20;;;;;;5026121;28;20504;-82
2022/07/10 09:36:09;;;;;;;3.40;3.20;;;27.50;91.80;;;;;;5043966;28;20073;-80
2022/07/10 09:38:53;;;;;;;4.00;3.70;;;27.30;92.60;;;;;;5045254;28;20057;-78
2022/07/10 09:41:38;;;;;;;3.58;3.38;;;27.10;93.00;;;;;;5047749;28;20056;-79
2022/07/10 09:44:20;;;;;;;3.70;3.50;;;27.00;94.80;;;;;;5022410;28;20069;-81
2022/07/10 09:47:01;;;;;;;4.53;3.53;;;27.00;96.10;;;;;;5007864;28;20049;-81
2022/07/10 09:49:32;;;;;;;3.83;3.30;;;27.00;96.60;;;;;;5045379;28;20049;-81
2022/07/10 09:52:01;;;;;;;4.15;3.83;;;26.90;96.00;;;;;;5043941;28;20492;-79
2022/07/10 09:54:31;;;;;;;5.38;3.78;;;26.80;95.60;;;;;;5047796;28;20052;-77
2022/07/10 09:57:04;;;;;;;5.38;3.85;;;26.60;96.00;;;;;;5029414;28;20045;-79
2022/07/10 09:59:50;;;;;;;5.35;3.58;;;26.40;97.40;;;;;;5049793;28;20043;-81
2022/07/10 10:02:24;;;;;;;4.40;4.07;;;26.50;99.00;;;;;;5029910;28;20048;-82
2022/07/10 10:04:52;;;;;;;4.10;3.80;;;26.60;98.60;;;;;;5046969;28;20053;-80
2022/07/10 10:07:22;;;;;;;5.65;4.20;;;26.70;99.30;;;;;;5046862;28;20052;-80
2022/07/10 10:10:02;;;;;;;5.15;4.75;;;26.60;99.90;;;;;;5047521;28;20049;-83
2022/07/10 10:12:49;;;;;;;3.90;3.60;;;26.60;99.90;;;;;;5030624;28;20053;-82
2022/07/10 10:15:23;;;;;;;3.95;3.63;;;26.40;99.90;;;;;;5029989;28;20045;-80
2022/07/10 10:17:52;;;;;;;5.85;3.75;;;26.10;99.90;;;;;;5028634;28;20071;-80
2022/07/10 10:20:41;;;;;;;3.88;3.67;;;26.00;99.90;;;;;;5047575;28;20072;-81
2022/07/10 10:23:17;;;;;;;3.78;3.40;;;25.90;99.90;;;;;;5049803;28;20049;-79
2022/07/10 10:25:46;;;;;;;3.20;3.00;;;25.80;99.90;;;;;;5028746;28;20053;-82
2022/07/10 10:28:16;;;;;;;4.38;3.00;;;25.60;99.90;;;;;;5049015;28;20142;-81
2022/07/10 10:30:49;;;;;;;4.45;3.25;;;25.60;99.90;;;;;;5050298;28;20041;-80
2022/07/10 10:33:39;;;;;;;;;;;25.30;99.90;;;;;;5050275;28;20143;-81
2022/07/10 10:36:17;;;;;;;5.88;3.40;;;25.30;99.90;;;;;;5051316;28;19925;-87
2022/07/10 10:39:13;;;;;;;6.80;3.45;;;25.00;99.90;;;;;;5022658;28;20059;-88
2022/07/10 10:41:50;;;;;;;4.18;3.75;;;25.00;99.90;;;;;;4948105;28;20051;-84
2022/07/10 10:44:32;;;;;;;3.80;3.50;;;24.90;99.90;;;;;;5021731;28;20481;-81
2022/07/10 10:47:09;;;;;;;5.32;3.90;;;24.70;99.90;;;;;;5056742;28;20079;-85
2022/07/10 10:50:01;;;;;;;5.32;3.75;;;24.50;99.90;;;;;;5022296;28;20053;-86
2022/07/10 10:52:31;;;;;;;3.40;3.20;;;24.40;99.90;;;;;;5052237;28;20048;-81
2022/07/10 10:55:11;;;;;;;4.00;3.70;;;24.30;99.90;;;;;;5055091;28;20049;-84
2022/07/10 10:57:48;;;;;;;4.35;3.55;;;24.30;99.90;;;;;;5060157;28;20053;-85
2022/07/10 11:00:36;;;;;;;7.13;3.70;;;24.40;99.90;;;;;;5059767;28;20049;-83
2022/07/10 11:03:22;;;;;;;4.60;4.07;;;24.60;99.90;;;;;;5053442;28;20080;-84
2022/07/10 11:05:51;;;;;;;5.43;3.63;;;24.70;99.90;;;;;;5059930;28;20033;-87
2022/07/10 11:08:38;;;;;;;4.38;4.07;;;24.80;99.90;;;;;;5058933;28;20525;-86
2022/07/10 11:11:41;;;;;;;7.97;5.30;;;24.80;99.90;;;;;;5055072;28;20053;-80
2022/07/10 11:14:10;;;;;;;4.45;4.13;;;24.90;99.90;;;;;;5046753;28;20519;-77
2022/07/10 11:16:48;;;;;;;4.88;4.47;;;24.70;99.90;;;;;;5029781;28;20126;-78
2022/07/10 11:19:31;;;;;;;4.57;4.18;;;24.70;99.90;;;;;;5030677;28;20049;-79
2022/07/10 11:22:40;;;;;;;4.72;4.28;;;24.70;99.90;;;;;;5046962;28;20195;-81
2022/07/10 11:25:27;;;;;;;4.65;4.28;;;24.70;99.90;;;;;;4980782;28;20064;-80
2022/07/10 11:28:08;;;;;;;6.43;5.75;;;24.80;99.90;;;;;;5013037;28;20049;-80
2022/07/10 11:30:52;;;;;;;6.93;5.22;;;24.80;99.90;;;;;;5049352;28;20072;-89
2022/07/10 11:33:23;;;;;;;5.22;4.93;;;24.70;99.90;;;;;;5072260;22;20050;-88
2022/07/10 11:35:52;;;;;;;8.38;5.95;;;24.70;99.90;;;;;;5006466;28;20061;-82
2022/07/10 11:38:21;;;;;;;7.60;5.40;;;24.80;99.90;;;;;;5015286;28;20054;-80
2022/07/10 11:40:49;;;;;;;5.30;4.90;;;24.70;99.90;;;;;;5022183;28;20046;-91
2022/07/10 11:43:22;;;;;;;5.22;4.70;;;24.50;99.90;;;;;;5023092;28;20113;-84
2022/07/10 11:45:49;;;;;;;5.20;4.70;;;24.40;99.90;;;;;;5033009;28;20076;-81
2022/07/10 11:48:23;;;;;;;5.32;4.82;;;24.30;99.90;;;;;;5018844;28;20041;-85
2022/07/10 11:50:51;;;;;;;5.78;4.75;;;24.30;99.90;;;;;;5035924;28;20059;-88
2022/07/10 11:53:24;;;;;;;5.40;5.00;;;24.30;99.90;;;;;;5040229;28;20049;-82
2022/07/10 11:55:52;;;;;;;5.68;5.03;;;24.20;99.90;;;;;;5004645;28;20058;-84
2022/07/10 11:58:22;;;;;;;6.10;5.50;;;24.20;99.90;;;;;;5013778;28;20050;-87
2022/07/10 12:01:01;;;;;;;7.25;6.55;;;24.10;99.90;;;;;;4999721;28;20080;-90
2022/07/10 12:03:29;;;;;;;6.50;6.00;;;24.00;99.90;;;;;;5005463;28;20052;-81
2022/07/10 12:05:56;;;;;;;6.28;5.30;;;24.00;99.90;;;;;;4990887;28;20050;-80
2022/07/10 12:08:24;;;;;;;4.50;4.20;;;24.00;99.90;;;;;;5006994;28;20112;-81
2022/07/10 12:10:52;;;;;;;7.20;4.75;;;24.00;99.90;;;;;;5004813;28;20672;-80
2022/07/10 12:13:22;;;;;;;4.28;3.65;;;24.00;99.90;;;;;;5006273;28;20061;-80
2022/07/10 12:15:50;;;;;;;4.15;3.85;;;24.00;99.90;;;;;;4988181;28;20421;-80
2022/07/10 12:18:20;;;;;;;5.05;4.35;;;23.90;99.90;;;;;;5003325;28;20045;-81
2022/07/10 12:20:49;;;;;;;10.68;5.13;;;23.90;99.90;;;;;;5004722;28;20082;-79
2022/07/10 12:23:17;;;;;;;4.18;3.78;;;24.00;99.90;;;;;;5008404;28;20057;-81
2022/07/10 12:25:48;;;;;;;4.38;3.97;;;24.10;99.90;;;;;;5007608;28;20469;-81
2022/07/10 12:28:16;;;;;;;5.45;3.90;;;24.20;99.90;;;;;;5010006;28;20528;-80
2022/07/10 12:30:46;;;;;;;3.92;3.65;;;24.10;99.90;;;;;;5009027;28;20042;-82
2022/07/10 12:33:17;;;;;;;3.70;3.38;;;24.10;99.90;;;;;;5007292;28;20111;-81
2022/07/10 12:35:51;;;;;;;3.78;3.28;;;24.00;99.90;;;;;;4991875;28;20094;-80
2022/07/10 12:38:20;;;;;;;4.68;2.78;;;23.90;99.90;;;;;;4992325;28;20050;-82
2022/07/10 12:40:48;;;;;;;4.70;3.45;;;23.80;99.90;;;;;;4990654;28;20045;-80
2022/07/10 12:43:27;;;;;;;5.93;3.50;;;23.70;99.90;;;;;;5008846;28;21020;-81
2022/07/10 12:46:16;;;;;;;3.30;3.10;;;23.60;99.90;;;;;;5010241;28;20069;-82
2022/07/10 12:48:45;;;;;;;3.40;3.10;;;23.50;99.90;;;;;;4991295;28;20453;-80
2022/07/10 12:51:24;;;;;;;4.35;3.83;;;23.40;99.90;;;;;;5007234;28;20045;-80
2022/07/10 12:53:51;;;;;;;4.38;3.80;;;23.40;99.90;;;;;;5008943;28;20085;-80
2022/07/10 12:56:36;;;;;;;4.43;4.03;;;23.40;99.90;;;;;;5008039;28;20136;-81
2022/07/10 12:59:15;;;;;;;4.20;3.80;;;23.40;99.90;;;;;;5008486;28;20054;-81